0A9

Elizabethton Municipal Airport

Elizabethton, Tennessee, USA
METAR K0A9 140335Z AUTO 00000KT 10SM 05/M01 A3023 RMK AO2
Observed Flight Rules
Dec-14 @ 03:35 UTC (35 minutes ago)
Visibility
10 miles
Temperatures Readings
Current 5°C / 41°F
Dewpoint -1°C / 30°F
Humidity 66%
Altimeter 30.23" Hg
Pressure 1024 hPa
Elevation 486
METAR K0A9 140335Z AUTO 00000KT 10SM 05/M01 A3023 RMK AO2
Observed Flight Rules
Dec-14 @ 03:35 UTC
(35 minutes ago)
Temperature Dewpoint
5°C / 41°F -1°C / 30°F
Humidity Altimeter Pressure
66% 30.23" Hg 1024 hPa